sensor_id;sensor_type;location;lat;lon;timestamp;pressure;altitude;pressure_sealevel;temperature;humidity
52975;BME280;38839;45.186;5.720;2023-05-08T00:01:29;99502.88;;;15.83;81.25
52975;BME280;38839;45.186;5.720;2023-05-08T00:03:55;99496.75;;;15.82;80.61
52975;BME280;38839;45.186;5.720;2023-05-08T00:06:20;99497.47;;;15.92;80.07
52975;BME280;38839;45.186;5.720;2023-05-08T00:08:46;99504.44;;;15.93;80.19
52975;BME280;38839;45.186;5.720;2023-05-08T00:11:12;99499.06;;;15.99;79.75
52975;BME280;38839;45.186;5.720;2023-05-08T00:13:37;99491.28;;;15.93;79.85
52975;BME280;38839;45.186;5.720;2023-05-08T00:16:04;99488.00;;;15.83;80.45
52975;BME280;38839;45.186;5.720;2023-05-08T00:18:30;99487.09;;;15.83;80.61
52975;BME280;38839;45.186;5.720;2023-05-08T00:20:55;99490.75;;;15.76;80.74
52975;BME280;38839;45.186;5.720;2023-05-08T00:23:20;99482.03;;;15.74;80.63
52975;BME280;38839;45.186;5.720;2023-05-08T00:25:46;99481.13;;;15.75;80.98
52975;BME280;38839;45.186;5.720;2023-05-08T00:28:11;99485.47;;;15.77;81.35
52975;BME280;38839;45.186;5.720;2023-05-08T00:30:37;99482.88;;;15.76;81.51
52975;BME280;38839;45.186;5.720;2023-05-08T00:33:02;99485.41;;;15.79;81.90
52975;BME280;38839;45.186;5.720;2023-05-08T00:35:28;99487.28;;;15.70;82.48
52975;BME280;38839;45.186;5.720;2023-05-08T00:37:54;99480.44;;;15.63;83.11
52975;BME280;38839;45.186;5.720;2023-05-08T00:40:19;99481.41;;;15.58;82.83
52975;BME280;38839;45.186;5.720;2023-05-08T00:42:44;99470.88;;;15.58;83.30
52975;BME280;38839;45.186;5.720;2023-05-08T00:45:10;99471.72;;;15.61;83.23
52975;BME280;38839;45.186;5.720;2023-05-08T00:47:35;99470.88;;;15.59;83.53
52975;BME280;38839;45.186;5.720;2023-05-08T00:50:01;99468.38;;;15.52;83.89
52975;BME280;38839;45.186;5.720;2023-05-08T00:52:28;99471.94;;;15.47;85.16
52975;BME280;38839;45.186;5.720;2023-05-08T00:54:55;99466.88;;;15.38;85.57
52975;BME280;38839;45.186;5.720;2023-05-08T00:57:21;99471.19;;;15.41;85.60
52975;BME280;38839;45.186;5.720;2023-05-08T00:59:48;99466.81;;;15.40;85.74
52975;BME280;38839;45.186;5.720;2023-05-08T01:02:14;99471.97;;;15.46;85.58
52975;BME280;38839;45.186;5.720;2023-05-08T01:04:40;99465.91;;;15.42;85.19
52975;BME280;38839;45.186;5.720;2023-05-08T01:07:09;99464.91;;;15.48;85.56
52975;BME280;38839;45.186;5.720;2023-05-08T01:09:35;99458.78;;;15.49;85.49
52975;BME280;38839;45.186;5.720;2023-05-08T01:12:14;99466.44;;;15.61;85.06
52975;BME280;38839;45.186;5.720;2023-05-08T01:14:55;99471.69;;;15.63;85.83
52975;BME280;38839;45.186;5.720;2023-05-08T01:17:49;99469.81;;;15.69;85.77
52975;BME280;38839;45.186;5.720;2023-05-08T01:20:33;99468.94;;;15.69;85.06
52975;BME280;38839;45.186;5.720;2023-05-08T01:34:09;99471.06;;;15.97;82.29
52975;BME280;38839;45.186;5.720;2023-05-08T01:36:43;99461.25;;;16.03;81.80
52975;BME280;38839;45.186;5.720;2023-05-08T01:39:20;99474.38;;;16.06;81.57
52975;BME280;38839;45.186;5.720;2023-05-08T01:41:57;99465.56;;;16.07;81.24
52975;BME280;38839;45.186;5.720;2023-05-08T01:44:28;99474.50;;;16.00;81.59
52975;BME280;38839;45.186;5.720;2023-05-08T01:46:59;99471.97;;;15.96;81.72
52975;BME280;38839;45.186;5.720;2023-05-08T01:49:33;99473.94;;;15.84;82.60
52975;BME280;38839;45.186;5.720;2023-05-08T01:52:06;99473.16;;;15.79;83.18
52975;BME280;38839;45.186;5.720;2023-05-08T01:54:48;99460.13;;;15.72;84.22
52975;BME280;38839;45.186;5.720;2023-05-08T01:57:15;99463.69;;;15.67;84.49
52975;BME280;38839;45.186;5.720;2023-05-08T01:59:43;99457.41;;;15.78;84.12
52975;BME280;38839;45.186;5.720;2023-05-08T02:02:11;99455.47;;;15.87;83.44
52975;BME280;38839;45.186;5.720;2023-05-08T02:04:38;99465.88;;;15.92;83.04
52975;BME280;38839;45.186;5.720;2023-05-08T02:07:04;99458.81;;;15.96;82.74
52975;BME280;38839;45.186;5.720;2023-05-08T02:09:30;99457.09;;;15.93;82.38
52975;BME280;38839;45.186;5.720;2023-05-08T02:11:56;99458.00;;;15.91;82.47
52975;BME280;38839;45.186;5.720;2023-05-08T02:14:23;99457.28;;;15.84;82.52
52975;BME280;38839;45.186;5.720;2023-05-08T02:16:51;99457.28;;;15.84;82.67
52975;BME280;38839;45.186;5.720;2023-05-08T02:19:20;99466.00;;;15.86;82.45
52975;BME280;38839;45.186;5.720;2023-05-08T02:21:48;99463.47;;;15.81;82.62
52975;BME280;38839;45.186;5.720;2023-05-08T02:24:16;99459.06;;;15.82;82.59
52975;BME280;38839;45.186;5.720;2023-05-08T02:26:43;99452.88;;;15.84;82.53
52975;BME280;38839;45.186;5.720;2023-05-08T02:29:09;99467.97;;;15.75;82.90
52975;BME280;38839;45.186;5.720;2023-05-08T02:31:35;99458.38;;;15.72;82.87
52975;BME280;38839;45.186;5.720;2023-05-08T02:34:03;99457.44;;;15.75;82.85
52975;BME280;38839;45.186;5.720;2023-05-08T02:36:29;99462.69;;;15.76;82.85
52975;BME280;38839;45.186;5.720;2023-05-08T02:38:57;99466.06;;;15.83;82.61
52975;BME280;38839;45.186;5.720;2023-05-08T02:41:27;99462.66;;;15.78;82.55
52975;BME280;38839;45.186;5.720;2023-05-08T02:43:53;99459.06;;;15.82;82.42
52975;BME280;38839;45.186;5.720;2023-05-08T02:46:34;99460.75;;;15.86;82.28
52975;BME280;38839;45.186;5.720;2023-05-08T02:49:07;99452.88;;;15.84;82.25
52975;BME280;38839;45.186;5.720;2023-05-08T02:57:20;99455.94;;;15.60;83.33
52975;BME280;38839;45.186;5.720;2023-05-08T02:59:59;99457.97;;;15.44;83.74
52975;BME280;38839;45.186;5.720;2023-05-08T03:03:00;99450.44;;;15.25;84.70
52975;BME280;38839;45.186;5.720;2023-05-08T03:05:29;99449.66;;;15.19;84.71
52975;BME280;38839;45.186;5.720;2023-05-08T03:07:59;99455.72;;;15.24;84.62
52975;BME280;38839;45.186;5.720;2023-05-08T03:10:35;99458.47;;;15.16;85.03
52975;BME280;38839;45.186;5.720;2023-05-08T03:13:06;99455.97;;;15.10;85.21
52975;BME280;38839;45.186;5.720;2023-05-08T03:15:45;99453.38;;;15.07;85.63
52975;BME280;38839;45.186;5.720;2023-05-08T03:18:14;99450.63;;;15.13;85.24
52975;BME280;38839;45.186;5.720;2023-05-08T03:20:43;99449.91;;;15.05;85.78
52975;BME280;38839;45.186;5.720;2023-05-08T03:23:12;99439.50;;;14.99;86.00
52975;BME280;38839;45.186;5.720;2023-05-08T03:25:40;99437.81;;;14.95;86.69
52975;BME280;38839;45.186;5.720;2023-05-08T03:28:06;99441.47;;;14.84;87.05
52975;BME280;38839;45.186;5.720;2023-05-08T03:30:36;99449.31;;;14.89;87.04
52975;BME280;38839;45.186;5.720;2023-05-08T03:33:03;99447.53;;;14.91;86.62
52975;BME280;38839;45.186;5.720;2023-05-08T03:35:30;99448.50;;;14.82;87.37
52975;BME280;38839;45.186;5.720;2023-05-08T03:37:57;99441.47;;;14.84;87.09
52975;BME280;38839;45.186;5.720;2023-05-08T03:40:23;99445.88;;;14.82;86.72
52975;BME280;38839;45.186;5.720;2023-05-08T03:42:49;99437.97;;;14.85;87.23
52975;BME280;38839;45.186;5.720;2023-05-08T03:45:15;99441.47;;;14.84;87.08
52975;BME280;38839;45.186;5.720;2023-05-08T03:47:42;99453.84;;;14.78;88.11
52975;BME280;38839;45.186;5.720;2023-05-08T03:50:08;99449.41;;;14.81;87.60
52975;BME280;38839;45.186;5.720;2023-05-08T03:52:34;99446.88;;;14.75;88.24
52975;BME280;38839;45.186;5.720;2023-05-08T03:54:59;99452.88;;;14.85;87.80
52975;BME280;38839;45.186;5.720;2023-05-08T03:57:34;99452.81;;;14.86;87.46
52975;BME280;38839;45.186;5.720;2023-05-08T04:00:14;99449.25;;;14.91;87.09
52975;BME280;38839;45.186;5.720;2023-05-08T04:05:52;99457.09;;;14.94;86.68
52975;BME280;38839;45.186;5.720;2023-05-08T04:08:27;99452.69;;;14.96;86.57
52975;BME280;38839;45.186;5.720;2023-05-08T04:11:05;99451.84;;;14.94;86.48
52975;BME280;38839;45.186;5.720;2023-05-08T04:13:36;99454.41;;;14.97;85.94
52975;BME280;38839;45.186;5.720;2023-05-08T04:16:12;99449.13;;;14.98;85.97
52975;BME280;38839;45.186;5.720;2023-05-08T04:18:45;99453.53;;;14.98;86.25
52975;BME280;38839;45.186;5.720;2023-05-08T04:21:17;99457.88;;;15.00;86.08
52975;BME280;38839;45.186;5.720;2023-05-08T04:23:43;99453.53;;;14.98;85.79
52975;BME280;38839;45.186;5.720;2023-05-08T04:26:11;99463.00;;;15.08;85.21
52975;BME280;38839;45.186;5.720;2023-05-08T04:28:38;99458.59;;;15.10;85.02
52975;BME280;38839;45.186;5.720;2023-05-08T04:31:05;99447.41;;;14.97;85.66
52975;BME280;38839;45.186;5.720;2023-05-08T04:33:33;99463.88;;;15.07;85.45
52975;BME280;38839;45.186;5.720;2023-05-08T04:36:02;99454.31;;;15.03;85.17
52975;BME280;38839;45.186;5.720;2023-05-08T04:38:28;99466.47;;;15.10;84.92
52975;BME280;38839;45.186;5.720;2023-05-08T04:40:53;99455.69;;;15.25;84.37
52975;BME280;38839;45.186;5.720;2023-05-08T04:43:19;99458.16;;;15.35;83.67
52975;BME280;38839;45.186;5.720;2023-05-08T04:45:45;99455.44;;;15.39;83.37
52975;BME280;38839;45.186;5.720;2023-05-08T04:48:10;99458.88;;;15.44;83.00
52975;BME280;38839;45.186;5.720;2023-05-08T04:50:35;99452.63;;;15.50;82.49
52975;BME280;38839;45.186;5.720;2023-05-08T04:53:01;99460.38;;;15.56;81.98
52975;BME280;38839;45.186;5.720;2023-05-08T04:55:26;99458.75;;;15.51;82.43
52975;BME280;38839;45.186;5.720;2023-05-08T04:57:52;99464.06;;;15.47;82.40
52975;BME280;38839;45.186;5.720;2023-05-08T05:00:19;99466.06;;;15.35;83.25
52975;BME280;38839;45.186;5.720;2023-05-08T05:02:44;99459.97;;;15.31;83.43
52975;BME280;38839;45.186;5.720;2023-05-08T05:05:09;99465.25;;;15.29;83.72
52975;BME280;38839;45.186;5.720;2023-05-08T05:07:35;99468.72;;;15.32;83.45
52975;BME280;38839;45.186;5.720;2023-05-08T05:10:00;99469.34;;;15.46;82.92
52975;BME280;38839;45.186;5.720;2023-05-08T05:12:26;99472.81;;;15.96;80.56
52975;BME280;38839;45.186;5.720;2023-05-08T05:14:51;99469.94;;;16.08;80.04
52975;BME280;38839;45.186;5.720;2023-05-08T05:17:17;99463.34;;;17.43;74.65
52975;BME280;38839;45.186;5.720;2023-05-08T05:19:42;99484.38;;;16.72;75.83
52975;BME280;38839;45.186;5.720;2023-05-08T05:22:07;99468.78;;;16.22;77.96
52975;BME280;38839;45.186;5.720;2023-05-08T05:24:33;99483.34;;;15.96;79.14
52975;BME280;38839;45.186;5.720;2023-05-08T05:27:01;99479.13;;;15.87;80.00
52975;BME280;38839;45.186;5.720;2023-05-08T05:29:26;99472.94;;;15.90;80.00
52975;BME280;38839;45.186;5.720;2023-05-08T05:31:52;99481.47;;;16.01;79.56
52975;BME280;38839;45.186;5.720;2023-05-08T05:34:17;99484.19;;;15.98;79.71
52975;BME280;38839;45.186;5.720;2023-05-08T05:36:43;99479.38;;;18.31;70.73
52975;BME280;38839;45.186;5.720;2023-05-08T05:39:08;99493.25;;;21.17;60.20
52975;BME280;38839;45.186;5.720;2023-05-08T05:41:34;99481.22;;;21.08;59.43
52975;BME280;38839;45.186;5.720;2023-05-08T05:44:00;99490.50;;;19.00;65.81
52975;BME280;38839;45.186;5.720;2023-05-08T05:46:26;99490.31;;;17.87;69.62
52975;BME280;38839;45.186;5.720;2023-05-08T05:48:59;99489.19;;;20.16;61.42
52975;BME280;38839;45.186;5.720;2023-05-08T05:51:24;99494.75;;;18.76;66.33
52975;BME280;38839;45.186;5.720;2023-05-08T05:53:51;99497.88;;;19.17;64.48
52975;BME280;38839;45.186;5.720;2023-05-08T05:56:17;99487.22;;;21.56;58.85
52975;BME280;38839;45.186;5.720;2023-05-08T05:58:42;99501.28;;;22.96;53.88
52975;BME280;38839;45.186;5.720;2023-05-08T06:01:10;99504.19;;;19.40;62.64
52975;BME280;38839;45.186;5.720;2023-05-08T06:03:35;99499.41;;;18.40;67.13
52975;BME280;38839;45.186;5.720;2023-05-08T06:06:02;99496.34;;;17.93;68.47
52975;BME280;38839;45.186;5.720;2023-05-08T06:08:27;99502.72;;;17.15;71.31
52975;BME280;38839;45.186;5.720;2023-05-08T06:10:52;99514.78;;;16.88;73.31
52975;BME280;38839;45.186;5.720;2023-05-08T06:13:18;99504.66;;;17.07;72.84
52975;BME280;38839;45.186;5.720;2023-05-08T06:15:44;99515.03;;;17.15;72.22
52975;BME280;38839;45.186;5.720;2023-05-08T06:18:09;99511.16;;;17.29;71.95
52975;BME280;38839;45.186;5.720;2023-05-08T06:20:36;99503.75;;;17.08;72.57
52975;BME280;38839;45.186;5.720;2023-05-08T06:23:02;99513.06;;;17.23;71.96
52975;BME280;38839;45.186;5.720;2023-05-08T06:25:28;99500.34;;;17.39;71.63
52975;BME280;38839;45.186;5.720;2023-05-08T06:27:53;99502.09;;;17.04;72.77
52975;BME280;38839;45.186;5.720;2023-05-08T06:30:19;99501.38;;;18.00;69.54
52975;BME280;38839;45.186;5.720;2023-05-08T06:32:44;99501.91;;;17.47;70.82
52975;BME280;38839;45.186;5.720;2023-05-08T06:35:09;99500.81;;;17.20;72.51
52975;BME280;38839;45.186;5.720;2023-05-08T06:37:36;99505.22;;;17.20;72.55
52975;BME280;38839;45.186;5.720;2023-05-08T06:40:05;99493.19;;;17.08;73.11
52975;BME280;38839;45.186;5.720;2023-05-08T06:42:31;99491.53;;;17.04;73.27
52975;BME280;38839;45.186;5.720;2023-05-08T06:44:56;99494.09;;;17.08;73.14
52975;BME280;38839;45.186;5.720;2023-05-08T06:47:21;99482.47;;;17.16;72.80
52975;BME280;38839;45.186;5.720;2023-05-08T06:49:47;99491.78;;;16.95;74.23
52975;BME280;38839;45.186;5.720;2023-05-08T06:52:12;99493.66;;;17.25;72.88
52975;BME280;38839;45.186;5.720;2023-05-08T06:54:38;99491.69;;;16.98;73.87
52975;BME280;38839;45.186;5.720;2023-05-08T06:57:03;99475.19;;;16.89;74.06
52975;BME280;38839;45.186;5.720;2023-05-08T06:59:28;99489.50;;;16.78;74.90
52975;BME280;38839;45.186;5.720;2023-05-08T07:01:54;99495.44;;;16.87;74.74
52975;BME280;38839;45.186;5.720;2023-05-08T07:04:19;99490.72;;;16.63;75.94
52975;BME280;38839;45.186;5.720;2023-05-08T07:06:44;99496.63;;;16.74;75.68
52975;BME280;38839;45.186;5.720;2023-05-08T07:09:10;99491.00;;;16.89;75.26
52975;BME280;38839;45.186;5.720;2023-05-08T07:11:35;99501.06;;;16.72;76.03
52975;BME280;38839;45.186;5.720;2023-05-08T07:14:01;99498.91;;;16.89;75.27
52975;BME280;38839;45.186;5.720;2023-05-08T07:16:26;99503.56;;;16.78;76.46
52975;BME280;38839;45.186;5.720;2023-05-08T07:18:51;99488.00;;;17.41;73.94
52975;BME280;38839;45.186;5.720;2023-05-08T07:21:17;99482.06;;;17.65;72.55
52975;BME280;38839;45.186;5.720;2023-05-08T07:23:44;99484.97;;;17.56;73.01
52975;BME280;38839;45.186;5.720;2023-05-08T07:26:09;99489.88;;;17.70;72.44
52975;BME280;38839;45.186;5.720;2023-05-08T07:28:35;99482.06;;;17.65;72.68
52975;BME280;38839;45.186;5.720;2023-05-08T07:31:03;99493.94;;;17.82;72.20
52975;BME280;38839;45.186;5.720;2023-05-08T07:33:31;99489.19;;;17.96;71.54
52975;BME280;38839;45.186;5.720;2023-05-08T07:35:58;99492.06;;;17.88;70.92
52975;BME280;38839;45.186;5.720;2023-05-08T07:38:23;99495.19;;;17.68;72.16
52975;BME280;38839;45.186;5.720;2023-05-08T07:40:48;99489.94;;;17.68;72.27
52975;BME280;38839;45.186;5.720;2023-05-08T07:43:15;99477.75;;;17.63;72.68
52975;BME280;38839;45.186;5.720;2023-05-08T07:45:41;99489.06;;;17.68;72.65
52975;BME280;38839;45.186;5.720;2023-05-08T08:34:05;99466.28;;;20.62;61.13
52975;BME280;38839;45.186;5.720;2023-05-08T08:36:30;99462.00;;;20.34;61.71
52975;BME280;38839;45.186;5.720;2023-05-08T08:38:56;99457.19;;;20.22;62.00
52975;BME280;38839;45.186;5.720;2023-05-08T08:41:22;99458.50;;;20.34;60.97
52975;BME280;38839;45.186;5.720;2023-05-08T08:43:47;99462.22;;;20.75;59.71
52975;BME280;38839;45.186;5.720;2023-05-08T08:46:13;99459.47;;;20.55;59.46
52975;BME280;38839;45.186;5.720;2023-05-08T08:48:44;99458.00;;;20.00;61.32
52975;BME280;38839;45.186;5.720;2023-05-08T08:51:45;99450.50;;;20.35;59.45
52975;BME280;38839;45.186;5.720;2023-05-08T08:54:16;99463.06;;;20.06;59.52
52975;BME280;38839;45.186;5.720;2023-05-08T08:56:44;99455.09;;;20.30;59.02
52975;BME280;38839;45.186;5.720;2023-05-08T08:59:14;99460.13;;;20.38;58.70
52975;BME280;38839;45.186;5.720;2023-05-08T09:01:43;99454.53;;;20.45;58.74
52975;BME280;38839;45.186;5.720;2023-05-08T09:04:09;99457.84;;;20.50;58.35
52975;BME280;38839;45.186;5.720;2023-05-08T09:06:35;99449.03;;;20.50;58.22
52975;BME280;38839;45.186;5.720;2023-05-08T09:09:01;99455.31;;;20.71;57.65
52975;BME280;38839;45.186;5.720;2023-05-08T09:11:27;99453.84;;;20.64;57.21
52975;BME280;38839;45.186;5.720;2023-05-08T09:13:57;99462.34;;;20.48;57.80
52975;BME280;38839;45.186;5.720;2023-05-08T09:16:23;99451.75;;;20.48;58.38
52975;BME280;38839;45.186;5.720;2023-05-08T09:18:49;99461.53;;;20.46;58.31
52975;BME280;38839;45.186;5.720;2023-05-08T09:21:14;99471.13;;;20.27;58.84
52975;BME280;38839;45.186;5.720;2023-05-08T09:24:00;99464.91;;;20.28;58.78
52975;BME280;38839;45.186;5.720;2023-05-08T09:26:38;99467.69;;;20.25;58.95
52975;BME280;38839;45.186;5.720;2023-05-08T09:29:17;99476.72;;;20.19;58.86
52975;BME280;38839;45.186;5.720;2023-05-08T09:31:45;99472.41;;;20.17;59.21
52975;BME280;38839;45.186;5.720;2023-05-08T09:34:27;99479.63;;;20.12;59.56
52975;BME280;38839;45.186;5.720;2023-05-08T09:39:34;99488.03;;;20.46;58.50
52975;BME280;38839;45.186;5.720;2023-05-08T09:42:03;99474.00;;;20.68;57.91
52975;BME280;38839;45.186;5.720;2023-05-08T09:44:45;99484.59;;;20.68;57.92
52975;BME280;38839;45.186;5.720;2023-05-08T09:47:12;99482.50;;;20.30;58.21
52975;BME280;38839;45.186;5.720;2023-05-08T09:49:38;99479.94;;;20.27;58.96
52975;BME280;38839;45.186;5.720;2023-05-08T09:52:05;99487.88;;;20.27;58.60
52975;BME280;38839;45.186;5.720;2023-05-08T09:54:31;99500.16;;;20.54;57.98
52975;BME280;38839;45.186;5.720;2023-05-08T09:56:56;99485.66;;;20.64;57.37
52975;BME280;38839;45.186;5.720;2023-05-08T09:59:23;99487.94;;;20.95;56.78
52975;BME280;38839;45.186;5.720;2023-05-08T10:01:50;99481.94;;;21.12;56.36
52975;BME280;38839;45.186;5.720;2023-05-08T10:04:16;99488.47;;;21.25;55.96
52975;BME280;38839;45.186;5.720;2023-05-08T10:06:41;99477.72;;;21.28;55.65
52975;BME280;38839;45.186;5.720;2023-05-08T10:09:08;99487.94;;;21.17;56.18
52975;BME280;38839;45.186;5.720;2023-05-08T10:11:34;99485.84;;;21.03;56.04
52975;BME280;38839;45.186;5.720;2023-05-08T10:14:00;99481.69;;;21.18;55.74
52975;BME280;38839;45.186;5.720;2023-05-08T10:16:27;99485.28;;;21.17;55.90
52975;BME280;38839;45.186;5.720;2023-05-08T10:18:54;99479.97;;;21.17;55.80
52975;BME280;38839;45.186;5.720;2023-05-08T10:21:27;99477.25;;;21.61;54.82
52975;BME280;38839;45.186;5.720;2023-05-08T10:23:55;99481.47;;;21.86;54.03
52975;BME280;38839;45.186;5.720;2023-05-08T10:26:26;99480.06;;;21.58;54.60
52975;BME280;38839;45.186;5.720;2023-05-08T10:28:54;99474.81;;;21.57;54.74
52975;BME280;38839;45.186;5.720;2023-05-08T10:31:34;99472.63;;;21.46;54.86
52975;BME280;38839;45.186;5.720;2023-05-08T10:34:01;99476.06;;;21.48;54.43
52975;BME280;38839;45.186;5.720;2023-05-08T10:36:28;99474.75;;;21.58;53.71
52975;BME280;38839;45.186;5.720;2023-05-08T10:38:56;99475.81;;;21.75;53.54
52975;BME280;38839;45.186;5.720;2023-05-08T10:41:22;99473.78;;;21.80;53.70
52975;BME280;38839;45.186;5.720;2023-05-08T10:43:49;99478.97;;;22.22;52.66
52975;BME280;38839;45.186;5.720;2023-05-08T10:48:47;99486.34;;;22.36;51.89
52975;BME280;38839;45.186;5.720;2023-05-08T10:51:40;99466.47;;;22.05;52.28
52975;BME280;38839;45.186;5.720;2023-05-08T10:54:24;99468.88;;;21.91;52.62
52975;BME280;38839;45.186;5.720;2023-05-08T10:56:50;99462.78;;;21.89;52.76
52975;BME280;38839;45.186;5.720;2023-05-08T10:59:17;99458.78;;;21.99;52.60
52975;BME280;38839;45.186;5.720;2023-05-08T11:01:46;99453.34;;;22.21;51.94
52975;BME280;38839;45.186;5.720;2023-05-08T11:04:19;99459.81;;;22.54;50.90
52975;BME280;38839;45.186;5.720;2023-05-08T11:06:46;99455.53;;;22.32;51.77
52975;BME280;38839;45.186;5.720;2023-05-08T11:11:53;99450.69;;;21.82;52.86
52975;BME280;38839;45.186;5.720;2023-05-08T11:14:25;99442.47;;;21.67;53.49
52975;BME280;38839;45.186;5.720;2023-05-08T11:19:21;99434.38;;;21.50;53.92
52975;BME280;38839;45.186;5.720;2023-05-08T11:24:37;99428.94;;;21.53;54.12
52975;BME280;38839;45.186;5.720;2023-05-08T11:27:03;99437.16;;;21.47;54.60
52975;BME280;38839;45.186;5.720;2023-05-08T11:29:28;99433.59;;;21.48;54.62
52975;BME280;38839;45.186;5.720;2023-05-08T11:31:54;99435.63;;;21.41;54.80
52975;BME280;38839;45.186;5.720;2023-05-08T11:37:20;99444.59;;;21.59;55.22
52975;BME280;38839;45.186;5.720;2023-05-08T11:39:47;99446.00;;;21.68;54.76
52975;BME280;38839;45.186;5.720;2023-05-08T11:45:05;99451.66;;;21.60;55.53
52975;BME280;38839;45.186;5.720;2023-05-08T11:47:36;99445.00;;;21.70;55.81
52975;BME280;38839;45.186;5.720;2023-05-08T11:50:02;99439.47;;;21.75;55.56
52975;BME280;38839;45.186;5.720;2023-05-08T11:52:30;99460.59;;;21.78;55.31
52975;BME280;38839;45.186;5.720;2023-05-08T11:54:56;99449.00;;;22.00;55.26
52975;BME280;38839;45.186;5.720;2023-05-08T11:57:25;99446.81;;;21.70;55.37
52975;BME280;38839;45.186;5.720;2023-05-08T11:59:51;99443.41;;;21.46;56.04
52975;BME280;38839;45.186;5.720;2023-05-08T12:02:16;99442.91;;;21.36;56.38
52975;BME280;38839;45.186;5.720;2023-05-08T12:04:45;99440.56;;;21.50;56.63
52975;BME280;38839;45.186;5.720;2023-05-08T12:07:11;99437.63;;;21.57;56.42
52975;BME280;38839;45.186;5.720;2023-05-08T12:09:36;99440.06;;;21.41;56.55
52975;BME280;38839;45.186;5.720;2023-05-08T12:12:02;99440.16;;;21.60;56.10
52975;BME280;38839;45.186;5.720;2023-05-08T12:14:28;99425.47;;;21.51;56.38
52975;BME280;38839;45.186;5.720;2023-05-08T12:16:53;99440.88;;;21.63;55.99
52975;BME280;38839;45.186;5.720;2023-05-08T12:19:18;99429.72;;;21.76;55.58
52975;BME280;38839;45.186;5.720;2023-05-08T12:21:47;99435.97;;;21.54;55.91
52975;BME280;38839;45.186;5.720;2023-05-08T12:24:14;99429.56;;;21.60;55.52
52975;BME280;38839;45.186;5.720;2023-05-08T12:26:41;99427.50;;;21.46;56.17
52975;BME280;38839;45.186;5.720;2023-05-08T12:29:07;99427.94;;;21.35;56.45
52975;BME280;38839;45.186;5.720;2023-05-08T12:31:36;99419.78;;;21.60;55.82
52975;BME280;38839;45.186;5.720;2023-05-08T12:34:05;99428.13;;;21.72;55.63
52975;BME280;38839;45.186;5.720;2023-05-08T12:36:34;99421.31;;;22.05;54.60
52975;BME280;38839;45.186;5.720;2023-05-08T12:39:12;99432.34;;;21.96;54.65
52975;BME280;38839;45.186;5.720;2023-05-08T12:41:48;99435.94;;;21.95;54.66
52975;BME280;38839;45.186;5.720;2023-05-08T12:44:22;99417.75;;;21.86;54.73
52975;BME280;38839;45.186;5.720;2023-05-08T12:46:53;99404.44;;;21.67;55.07
52975;BME280;38839;45.186;5.720;2023-05-08T12:49:29;99398.00;;;21.73;55.16
52975;BME280;38839;45.186;5.720;2023-05-08T12:52:10;99401.97;;;21.83;54.77
52975;BME280;38839;45.186;5.720;2023-05-08T12:54:38;99406.25;;;21.66;55.16
52975;BME280;38839;45.186;5.720;2023-05-08T12:57:12;99411.41;;;21.69;55.18
52975;BME280;38839;45.186;5.720;2023-05-08T12:59:39;99407.31;;;21.62;55.61
52975;BME280;38839;45.186;5.720;2023-05-08T13:02:14;99391.91;;;21.70;54.50
52975;BME280;38839;45.186;5.720;2023-05-08T13:04:40;99385.34;;;21.78;54.89
52975;BME280;38839;45.186;5.720;2023-05-08T13:07:05;99396.44;;;21.87;54.66
52975;BME280;38839;45.186;5.720;2023-05-08T13:09:31;99413.47;;;22.02;54.36
52975;BME280;38839;45.186;5.720;2023-05-08T13:11:57;99386.47;;;22.12;53.87
52975;BME280;38839;45.186;5.720;2023-05-08T13:14:23;99390.84;;;22.13;54.14
52975;BME280;38839;45.186;5.720;2023-05-08T13:16:48;99386.81;;;22.23;53.96
52975;BME280;38839;45.186;5.720;2023-05-08T13:19:14;99387.56;;;22.26;53.90
52975;BME280;38839;45.186;5.720;2023-05-08T13:21:43;99367.28;;;22.43;53.85
52975;BME280;38839;45.186;5.720;2023-05-08T13:24:11;99369.84;;;22.63;53.42
52975;BME280;38839;45.186;5.720;2023-05-08T13:26:37;99371.41;;;22.67;53.38
52975;BME280;38839;45.186;5.720;2023-05-08T13:29:02;99366.88;;;22.33;54.29
52975;BME280;38839;45.186;5.720;2023-05-08T13:31:27;99347.03;;;22.40;54.18
52975;BME280;38839;45.186;5.720;2023-05-08T13:33:53;99364.56;;;22.06;54.87
52975;BME280;38839;45.186;5.720;2023-05-08T13:36:18;99356.38;;;21.92;55.57
52975;BME280;38839;45.186;5.720;2023-05-08T13:38:45;99360.41;;;22.01;55.32
52975;BME280;38839;45.186;5.720;2023-05-08T13:41:10;99343.59;;;22.00;55.25
52975;BME280;38839;45.186;5.720;2023-05-08T13:43:35;99354.53;;;22.13;54.48
52975;BME280;38839;45.186;5.720;2023-05-08T13:46:02;99356.75;;;22.03;54.70
52975;BME280;38839;45.186;5.720;2023-05-08T13:48:28;99355.59;;;21.90;55.06
52975;BME280;38839;45.186;5.720;2023-05-08T13:50:53;99346.91;;;21.86;55.28
52975;BME280;38839;45.186;5.720;2023-05-08T13:53:19;99332.84;;;21.84;54.88
52975;BME280;38839;45.186;5.720;2023-05-08T13:55:44;99331.53;;;21.93;54.83
52975;BME280;38839;45.186;5.720;2023-05-08T13:58:09;99331.47;;;22.14;54.24
52975;BME280;38839;45.186;5.720;2023-05-08T14:00:35;99320.78;;;22.15;54.41
52975;BME280;38839;45.186;5.720;2023-05-08T14:03:00;99323.34;;;22.36;53.97
52975;BME280;38839;45.186;5.720;2023-05-08T14:05:26;99320.84;;;22.14;54.51
52975;BME280;38839;45.186;5.720;2023-05-08T14:07:51;99318.91;;;22.17;54.01
52975;BME280;38839;45.186;5.720;2023-05-08T14:10:17;99308.69;;;22.27;54.01
52975;BME280;38839;45.186;5.720;2023-05-08T14:12:42;99297.41;;;22.22;53.92
52975;BME280;38839;45.186;5.720;2023-05-08T14:15:08;99311.78;;;22.18;54.43
52975;BME280;38839;45.186;5.720;2023-05-08T14:17:34;99305.41;;;22.03;54.68
52975;BME280;38839;45.186;5.720;2023-05-08T14:19:59;99311.00;;;21.78;55.13
52975;BME280;38839;45.186;5.720;2023-05-08T14:22:25;99317.88;;;21.82;55.70
52975;BME280;38839;45.186;5.720;2023-05-08T14:24:50;99307.56;;;21.76;55.20
52975;BME280;38839;45.186;5.720;2023-05-08T14:27:16;99310.59;;;21.87;54.85
52975;BME280;38839;45.186;5.720;2023-05-08T14:29:41;99307.50;;;21.77;55.24